Aérodrome :
LOGIN :

S'inscrire | Disclaimer

   EN    FR    IT 

 










Légende :    VFR   VFR Marginal   IFR   IFR Intensif   IFR Très Intensif
Visi : 
Plafond : 
>= 8 km
>= 3000ft
5 à 8 km
1000 à 3000 ft
1500m à 5 km
500 à 1000 ft
800 à 1500m
200 à 500 ft
< 800m
< 200 ft
Symboles :   Orages  Brouillard  Fortes neiges  Fortes précipitations  Vent > 20 kt
SIGMETs :   Divers  Orages  Givrage  Turbulence  Onde Orograph.  Cendres Volcan.







- Altitude de l'aérodrome : 6 ft
- Code IATA : PSA


LIRP - Galileo Galilei Pisa

DERNIER METAR :
  • 161945Z 12007KT 9999 BKN040 09/07 Q1019 NOSIG

METARs EXPIRÉS :
  • 161915Z 12007KT 9999 BKN040 08/07 Q1020 NOSIG
  • 161845Z 12007KT 9999 SCT040 08/06 Q1020 NOSIG
  • 161815Z 12006KT 9999 SCT040 08/07 Q1020 NOSIG
  • 161745Z 12008KT 9999 SCT040 09/07 Q1020 NOSIG
  • 161715Z 12007KT 9999 SCT030 08/06 Q1020 NOSIG

TAF TAF LIRP
Valide du 16 à 12h jusqu'au 17 à 12h UTC


161100Z 1612/1712 11010KT 9999 FEW030
BECMG 1616/1618 SCT015 BKN030
TEMPO 1700/1712 3000 RA BKN025 SCT060
Pas de NOTAMs connus pour ce terrain.



MET'MAP, la Météo Aéronautique d'un coup d'oeil ! - Copyright ORBIFLY Décembre 2007 - Disclaimer

ORBIFLY MET'MAP TEAM :

Programmation & Développement : Alexandra Zaïnal
Conception & Développement : Baudouin d'Aumeries
Co-Programmation & Développement : Marc-Olivier Méhu
Soutien technique & logistique : Manuel Goepfert

Contact : metmap@orbifly.com




SOURCES & CREDITS :

   NOAA